x

Isle Of Shoals, Nh (iosn3) Weather Station

10:00pm - Sat 10th Dec 2016 All times are EST. -5 hours from GMT.

  • Wind
    10mph, 13mph gusts
  • Air Temp 23°f
  • Sea Pressure 1029.5mb
  • Isle Of Shoals, Nh
  • Isle Of Shoals, Nh

More Historic Weather Station data

Upgrade to MSW Pro to gain access to the past 30 days of data for over 8000 Wavebouys and Weather Stations around the globe.

Join Pro

Comparision Forecast

View Surf forecast
   
Sat 12/10 10:00pm 10 13 mph 1029.5mb 23f
9:00pm 14 16 mph 1028.7mb 23f
8:00pm 20 22 mph 1028.3mb 24f
7:00pm 24 26 mph 1027.8mb 23f
6:00pm 23 26 mph 1027.2mb 24f
5:00pm 22 25 mph 1026.4mb 25f
4:00pm 20 23 mph 1025.5mb 26f
3:00pm 20 24 mph 1024.6mb 26f
2:00pm 20 24 mph 1023.6mb 26f
1:00pm 15 21 mph 1023.7mb 26f
12:00pm 20 25 mph 1023.8mb 25f
11:00am 22 28 mph 1024mb 24f
10:00am 24 30 mph 1024.5mb 23f
9:00am 25 30 mph 1024.3mb 22f
8:00am 20 25 mph 1024.1mb 22f
7:00am 17 22 mph 1024mb 21f
6:00am 21 24 mph 1022.9mb 22f
5:00am 22 28 mph 1022.5mb 21f
4:00am 28 30 mph 1021.7mb 21f
3:00am 24 32 mph 1021.5mb 23f
2:00am 26 29 mph 1020.6mb 24f
1:00am 29 34 mph 1020mb 25f
12:00am 26 30 mph 1020mb 25f
Fri 12/09 11:00pm 30 32 mph 1019.6mb 26f
10:00pm 28 33 mph 1019.4mb 26f
9:00pm 30 34 mph 1019.1mb 27f
8:00pm 36 41 mph 1018mb 27f
7:00pm 31 34 mph 1018mb 29f
6:00pm 29 33 mph 1017.1mb 29f
5:00pm 30 36 mph 1015.9mb 30f
4:00pm 26 29 mph 1015.3mb 31f
3:00pm 29 34 mph 1014mb 32f
2:00pm 26 30 mph 1012.9mb 32f
1:00pm 33 39 mph 1012mb 32f
12:00pm 32 37 mph 1012.1mb 32f
11:00am 36 41 mph 1011.8mb 32f
10:00am 33 41 mph 1012mb 31f
9:00am 30 33 mph 1011.8mb 31f
8:00am 25 30 mph 1011.5mb 31f
7:00am 23 25 mph 1010.8mb 32f
6:00am 22 25 mph 1010mb 33f
5:00am 25 29 mph 1008.8mb 33f
4:00am 28 33 mph 1008.2mb 33f
3:00am 24 28 mph 1008.5mb 34f
2:00am 22 25 mph 1008.4mb 34f
1:00am 24 28 mph 1008mb 34f
12:00am 22 26 mph 1008.1mb 35f
Thu 12/08 11:00pm 21 26 mph 1008.4mb 36f
10:00pm 22 23 mph 1008.2mb 36f
9:00pm 22 24 mph 1008.2mb 37f
8:00pm 24 26 mph 1008.1mb 38f
7:00pm 22 26 mph 1008mb 39f
6:00pm 29 33 mph 1007.4mb 40f
5:00pm 22 24 mph 1007.6mb 41f
4:00pm 18 22 mph 1007.6mb 41f
3:00pm 15 16 mph 1007.6mb 41f
2:00pm 14 16 mph 1007.5mb 41f
1:00pm 14 16 mph 1008.1mb 41f
12:00pm 13 15 mph 1009.1mb 40f
11:00am 16 17 mph 1010.4mb 40f
10:00am 16 17 mph 1011.8mb 39f
9:00am 15 17 mph 1012.3mb 39f
8:00am 14 16 mph 1012.5mb 39f
7:00am 14 15 mph 1012.6mb 39f
6:00am 14 15 mph 1012.9mb 38f
5:00am 16 17 mph 1013.1mb 39f
4:00am 15 16 mph 1013.1mb 39f
3:00am 15 16 mph 1013.6mb 37f
2:00am 15 16 mph 1013.8mb 38f
1:00am 16
mph
1014.1mb 37f
12:00am 11 13 mph 1013.7mb 37f
Wed 12/07 11:00pm 8 9 mph 1014.5mb 37f
10:00pm 11 13 mph 1015mb 36f
9:00pm 14 16 mph 1015.2mb 38f
8:00pm 11 13 mph 1015.2mb 40f
7:00pm 14 16 mph 1015.4mb 39f
6:00pm 13 14 mph 1015.3mb 39f
5:00pm 8 10 mph 1015.2mb 39f
4:00pm 6 7 mph 1014.5mb 38f
3:00pm 6 7 mph 1014mb 38f
2:00pm 6
mph
1013.9mb 38f
1:00pm 7 8 mph 1014mb 37f
12:00pm 10 11 mph 1014.5mb 36f
11:00am 11 13 mph 1015.3mb 36f
10:00am 13 15 mph 1015.5mb 35f
9:00am 13 14 mph 1015.7mb 34f
8:00am 14 16 mph 1015.1mb 34f
7:00am 11 14 mph 1014.1mb 40f
6:00am 15 17 mph 1013.8mb 40f
5:00am 16 17 mph 1013.5mb 40f